sensor_id;sensor_type;location;lat;lon;timestamp;P1;durP1;ratioP1;P2;durP2;ratioP2
46613;SDS011;32338;50.430;6.806;2022-12-29T00:01:57;1.13;;;0.52;;
46613;SDS011;32338;50.430;6.806;2022-12-29T00:04:24;0.32;;;0.30;;
46613;SDS011;32338;50.430;6.806;2022-12-29T00:06:51;0.30;;;0.30;;
46613;SDS011;32338;50.430;6.806;2022-12-29T00:09:18;0.35;;;0.30;;
46613;SDS011;32338;50.430;6.806;2022-12-29T00:11:45;0.25;;;0.25;;
46613;SDS011;32338;50.430;6.806;2022-12-29T00:14:13;0.10;;;0.10;;
46613;SDS011;32338;50.430;6.806;2022-12-29T00:17:11;0.35;;;0.35;;
46613;SDS011;32338;50.430;6.806;2022-12-29T00:19:38;0.52;;;0.30;;
46613;SDS011;32338;50.430;6.806;2022-12-29T00:22:23;0.40;;;0.22;;
46613;SDS011;32338;50.430;6.806;2022-12-29T00:25:08;0.17;;;0.17;;
46613;SDS011;32338;50.430;6.806;2022-12-29T00:27:52;0.30;;;0.30;;
46613;SDS011;32338;50.430;6.806;2022-12-29T00:30:40;0.40;;;0.20;;
46613;SDS011;32338;50.430;6.806;2022-12-29T00:33:25;0.70;;;0.25;;
46613;SDS011;32338;50.430;6.806;2022-12-29T00:36:12;0.40;;;0.20;;
46613;SDS011;32338;50.430;6.806;2022-12-29T00:38:44;0.52;;;0.20;;
46613;SDS011;32338;50.430;6.806;2022-12-29T00:41:32;0.30;;;0.20;;
46613;SDS011;32338;50.430;6.806;2022-12-29T00:44:16;0.40;;;0.20;;
46613;SDS011;32338;50.430;6.806;2022-12-29T00:46:44;0.30;;;0.20;;
46613;SDS011;32338;50.430;6.806;2022-12-29T00:49:11;0.20;;;0.20;;
46613;SDS011;32338;50.430;6.806;2022-12-29T00:51:58;0.10;;;0.10;;
46613;SDS011;32338;50.430;6.806;2022-12-29T00:54:27;0.10;;;0.10;;
46613;SDS011;32338;50.430;6.806;2022-12-29T00:56:54;1.00;;;0.15;;
46613;SDS011;32338;50.430;6.806;2022-12-29T00:59:21;0.43;;;0.20;;
46613;SDS011;32338;50.430;6.806;2022-12-29T01:01:51;1.45;;;0.50;;
46613;SDS011;32338;50.430;6.806;2022-12-29T01:04:19;0.73;;;0.25;;
46613;SDS011;32338;50.430;6.806;2022-12-29T01:06:46;0.50;;;0.30;;
46613;SDS011;32338;50.430;6.806;2022-12-29T01:09:13;1.08;;;0.30;;
46613;SDS011;32338;50.430;6.806;2022-12-29T01:11:57;0.40;;;0.20;;
46613;SDS011;32338;50.430;6.806;2022-12-29T01:14:24;0.30;;;0.30;;
46613;SDS011;32338;50.430;6.806;2022-12-29T01:16:53;0.60;;;0.30;;
46613;SDS011;32338;50.430;6.806;2022-12-29T01:19:20;0.50;;;0.30;;
46613;SDS011;32338;50.430;6.806;2022-12-29T01:21:47;0.80;;;0.40;;
46613;SDS011;32338;50.430;6.806;2022-12-29T01:24:14;1.63;;;0.20;;
46613;SDS011;32338;50.430;6.806;2022-12-29T01:26:42;0.77;;;0.40;;
46613;SDS011;32338;50.430;6.806;2022-12-29T01:29:09;0.47;;;0.32;;
46613;SDS011;32338;50.430;6.806;2022-12-29T01:31:36;0.55;;;0.40;;
46613;SDS011;32338;50.430;6.806;2022-12-29T01:34:04;0.60;;;0.40;;
46613;SDS011;32338;50.430;6.806;2022-12-29T01:36:31;2.33;;;0.40;;
46613;SDS011;32338;50.430;6.806;2022-12-29T01:38:58;0.57;;;0.35;;
46613;SDS011;32338;50.430;6.806;2022-12-29T01:41:25;2.78;;;0.60;;
46613;SDS011;32338;50.430;6.806;2022-12-29T01:43:52;0.85;;;0.50;;
46613;SDS011;32338;50.430;6.806;2022-12-29T01:46:22;1.20;;;0.50;;
46613;SDS011;32338;50.430;6.806;2022-12-29T01:48:52;1.98;;;0.60;;
46613;SDS011;32338;50.430;6.806;2022-12-29T01:51:24;1.52;;;0.50;;
46613;SDS011;32338;50.430;6.806;2022-12-29T01:53:52;0.55;;;0.55;;
46613;SDS011;32338;50.430;6.806;2022-12-29T01:56:21;2.63;;;0.60;;
46613;SDS011;32338;50.430;6.806;2022-12-29T01:58:48;1.08;;;0.63;;
46613;SDS011;32338;50.430;6.806;2022-12-29T02:01:21;0.75;;;0.60;;
46613;SDS011;32338;50.430;6.806;2022-12-29T02:03:48;0.85;;;0.52;;
46613;SDS011;32338;50.430;6.806;2022-12-29T02:06:18;0.50;;;0.50;;
46613;SDS011;32338;50.430;6.806;2022-12-29T02:08:49;0.95;;;0.60;;
46613;SDS011;32338;50.430;6.806;2022-12-29T02:11:18;1.55;;;0.55;;
46613;SDS011;32338;50.430;6.806;2022-12-29T02:13:45;0.50;;;0.50;;
46613;SDS011;32338;50.430;6.806;2022-12-29T02:16:18;2.97;;;0.50;;
46613;SDS011;32338;50.430;6.806;2022-12-29T02:19:00;0.73;;;0.50;;
46613;SDS011;32338;50.430;6.806;2022-12-29T02:22:03;0.40;;;0.30;;
46613;SDS011;32338;50.430;6.806;2022-12-29T02:24:51;1.48;;;0.52;;
46613;SDS011;32338;50.430;6.806;2022-12-29T02:27:42;1.05;;;0.60;;
46613;SDS011;32338;50.430;6.806;2022-12-29T02:33:21;0.93;;;0.70;;
46613;SDS011;32338;50.430;6.806;2022-12-29T02:35:57;0.90;;;0.80;;
46613;SDS011;32338;50.430;6.806;2022-12-29T02:38:38;1.67;;;0.77;;
46613;SDS011;32338;50.430;6.806;2022-12-29T02:41:16;0.70;;;0.70;;
46613;SDS011;32338;50.430;6.806;2022-12-29T02:43:48;1.15;;;0.90;;
46613;SDS011;32338;50.430;6.806;2022-12-29T02:46:21;0.82;;;0.82;;
46613;SDS011;32338;50.430;6.806;2022-12-29T02:48:55;1.00;;;0.80;;
46613;SDS011;32338;50.430;6.806;2022-12-29T02:51:26;1.08;;;0.88;;
46613;SDS011;32338;50.430;6.806;2022-12-29T02:53:56;1.10;;;0.82;;
46613;SDS011;32338;50.430;6.806;2022-12-29T02:56:41;2.03;;;1.13;;
46613;SDS011;32338;50.430;6.806;2022-12-29T02:59:08;2.40;;;0.80;;
46613;SDS011;32338;50.430;6.806;2022-12-29T03:01:53;2.63;;;0.90;;
46613;SDS011;32338;50.430;6.806;2022-12-29T03:04:50;0.98;;;0.60;;
46613;SDS011;32338;50.430;6.806;2022-12-29T03:07:29;0.47;;;0.47;;
46613;SDS011;32338;50.430;6.806;2022-12-29T03:10:04;0.50;;;0.50;;
46613;SDS011;32338;50.430;6.806;2022-12-29T03:12:44;1.77;;;0.40;;
46613;SDS011;32338;50.430;6.806;2022-12-29T03:15:34;1.33;;;0.55;;
46613;SDS011;32338;50.430;6.806;2022-12-29T03:18:24;1.48;;;0.60;;
46613;SDS011;32338;50.430;6.806;2022-12-29T03:21:02;1.85;;;0.40;;
46613;SDS011;32338;50.430;6.806;2022-12-29T03:23:32;0.57;;;0.43;;
46613;SDS011;32338;50.430;6.806;2022-12-29T03:26:01;1.85;;;0.70;;
46613;SDS011;32338;50.430;6.806;2022-12-29T03:28:34;4.15;;;0.70;;
46613;SDS011;32338;50.430;6.806;2022-12-29T03:31:04;0.95;;;0.55;;
46613;SDS011;32338;50.430;6.806;2022-12-29T03:33:35;4.57;;;0.60;;
46613;SDS011;32338;50.430;6.806;2022-12-29T03:36:04;0.50;;;0.50;;
46613;SDS011;32338;50.430;6.806;2022-12-29T03:38:37;1.42;;;0.45;;
46613;SDS011;32338;50.430;6.806;2022-12-29T03:41:09;1.63;;;0.60;;
46613;SDS011;32338;50.430;6.806;2022-12-29T03:43:39;0.70;;;0.60;;
46613;SDS011;32338;50.430;6.806;2022-12-29T03:46:05;2.40;;;0.50;;
46613;SDS011;32338;50.430;6.806;2022-12-29T03:48:32;4.65;;;0.60;;
46613;SDS011;32338;50.430;6.806;2022-12-29T03:51:00;1.30;;;0.60;;
46613;SDS011;32338;50.430;6.806;2022-12-29T03:53:26;0.57;;;0.57;;
46613;SDS011;32338;50.430;6.806;2022-12-29T03:55:53;0.43;;;0.40;;
46613;SDS011;32338;50.430;6.806;2022-12-29T03:58:19;1.67;;;0.70;;
46613;SDS011;32338;50.430;6.806;2022-12-29T04:00:46;1.23;;;0.57;;
46613;SDS011;32338;50.430;6.806;2022-12-29T04:03:12;0.50;;;0.47;;
46613;SDS011;32338;50.430;6.806;2022-12-29T04:05:39;2.50;;;0.68;;
46613;SDS011;32338;50.430;6.806;2022-12-29T04:08:07;0.68;;;0.50;;
46613;SDS011;32338;50.430;6.806;2022-12-29T04:10:34;1.25;;;0.55;;
46613;SDS011;32338;50.430;6.806;2022-12-29T04:13:00;0.50;;;0.40;;
46613;SDS011;32338;50.430;6.806;2022-12-29T04:15:27;2.45;;;0.43;;
46613;SDS011;32338;50.430;6.806;2022-12-29T04:17:53;1.08;;;0.47;;
46613;SDS011;32338;50.430;6.806;2022-12-29T04:20:20;0.93;;;0.50;;
46613;SDS011;32338;50.430;6.806;2022-12-29T04:23:04;1.45;;;0.40;;
46613;SDS011;32338;50.430;6.806;2022-12-29T04:25:33;0.68;;;0.45;;
46613;SDS011;32338;50.430;6.806;2022-12-29T04:28:00;0.65;;;0.40;;
46613;SDS011;32338;50.430;6.806;2022-12-29T04:30:27;1.25;;;0.55;;
46613;SDS011;32338;50.430;6.806;2022-12-29T04:32:53;1.02;;;0.50;;
46613;SDS011;32338;50.430;6.806;2022-12-29T04:35:20;0.55;;;0.50;;
46613;SDS011;32338;50.430;6.806;2022-12-29T04:37:47;0.98;;;0.55;;
46613;SDS011;32338;50.430;6.806;2022-12-29T04:40:13;0.68;;;0.68;;
46613;SDS011;32338;50.430;6.806;2022-12-29T04:42:41;2.20;;;0.82;;
46613;SDS011;32338;50.430;6.806;2022-12-29T04:45:08;1.50;;;0.85;;
46613;SDS011;32338;50.430;6.806;2022-12-29T04:47:35;1.13;;;0.77;;
46613;SDS011;32338;50.430;6.806;2022-12-29T04:50:02;2.40;;;0.73;;
46613;SDS011;32338;50.430;6.806;2022-12-29T04:52:29;1.52;;;0.65;;
46613;SDS011;32338;50.430;6.806;2022-12-29T04:54:56;1.33;;;1.20;;
46613;SDS011;32338;50.430;6.806;2022-12-29T04:57:22;1.58;;;0.68;;
46613;SDS011;32338;50.430;6.806;2022-12-29T04:59:50;1.98;;;0.70;;
46613;SDS011;32338;50.430;6.806;2022-12-29T05:02:17;1.40;;;0.75;;
46613;SDS011;32338;50.430;6.806;2022-12-29T05:04:44;1.08;;;0.73;;
46613;SDS011;32338;50.430;6.806;2022-12-29T05:07:11;1.67;;;0.90;;
46613;SDS011;32338;50.430;6.806;2022-12-29T05:09:38;3.15;;;0.80;;
46613;SDS011;32338;50.430;6.806;2022-12-29T05:12:04;0.85;;;0.68;;
46613;SDS011;32338;50.430;6.806;2022-12-29T05:14:31;0.93;;;0.80;;
46613;SDS011;32338;50.430;6.806;2022-12-29T05:17:00;1.33;;;0.80;;
46613;SDS011;32338;50.430;6.806;2022-12-29T05:19:26;3.60;;;0.68;;
46613;SDS011;32338;50.430;6.806;2022-12-29T05:21:53;1.48;;;0.70;;
46613;SDS011;32338;50.430;6.806;2022-12-29T05:24:20;1.77;;;1.10;;
46613;SDS011;32338;50.430;6.806;2022-12-29T05:26:46;1.33;;;0.98;;
46613;SDS011;32338;50.430;6.806;2022-12-29T05:29:13;1.30;;;1.00;;
46613;SDS011;32338;50.430;6.806;2022-12-29T05:31:40;1.90;;;0.73;;
46613;SDS011;32338;50.430;6.806;2022-12-29T05:34:08;0.90;;;0.80;;
46613;SDS011;32338;50.430;6.806;2022-12-29T05:36:35;3.08;;;0.95;;
46613;SDS011;32338;50.430;6.806;2022-12-29T05:39:02;3.00;;;0.90;;
46613;SDS011;32338;50.430;6.806;2022-12-29T05:41:29;1.48;;;0.70;;
46613;SDS011;32338;50.430;6.806;2022-12-29T05:43:55;1.10;;;0.85;;
46613;SDS011;32338;50.430;6.806;2022-12-29T05:46:22;1.70;;;0.70;;
46613;SDS011;32338;50.430;6.806;2022-12-29T05:48:48;1.02;;;0.80;;
46613;SDS011;32338;50.430;6.806;2022-12-29T05:51:16;1.25;;;0.80;;
46613;SDS011;32338;50.430;6.806;2022-12-29T05:53:43;2.10;;;0.82;;
46613;SDS011;32338;50.430;6.806;2022-12-29T05:56:09;4.47;;;0.75;;
46613;SDS011;32338;50.430;6.806;2022-12-29T05:58:36;2.22;;;0.88;;
46613;SDS011;32338;50.430;6.806;2022-12-29T06:01:02;0.80;;;0.65;;
46613;SDS011;32338;50.430;6.806;2022-12-29T06:03:29;1.80;;;0.68;;
46613;SDS011;32338;50.430;6.806;2022-12-29T06:05:56;2.47;;;0.60;;
46613;SDS011;32338;50.430;6.806;2022-12-29T06:08:24;2.47;;;0.75;;
46613;SDS011;32338;50.430;6.806;2022-12-29T06:10:50;8.13;;;0.85;;
46613;SDS011;32338;50.430;6.806;2022-12-29T06:13:17;1.55;;;0.80;;
46613;SDS011;32338;50.430;6.806;2022-12-29T06:15:44;1.75;;;0.82;;
46613;SDS011;32338;50.430;6.806;2022-12-29T06:18:10;3.95;;;0.85;;
46613;SDS011;32338;50.430;6.806;2022-12-29T06:20:37;1.40;;;0.85;;
46613;SDS011;32338;50.430;6.806;2022-12-29T06:23:03;2.70;;;0.50;;
46613;SDS011;32338;50.430;6.806;2022-12-29T06:25:31;1.63;;;0.70;;
46613;SDS011;32338;50.430;6.806;2022-12-29T06:27:59;1.42;;;0.73;;
46613;SDS011;32338;50.430;6.806;2022-12-29T06:30:25;2.15;;;0.88;;
46613;SDS011;32338;50.430;6.806;2022-12-29T06:32:52;2.83;;;0.30;;
46613;SDS011;32338;50.430;6.806;2022-12-29T06:35:19;0.82;;;0.40;;
46613;SDS011;32338;50.430;6.806;2022-12-29T06:37:47;0.50;;;0.20;;
46613;SDS011;32338;50.430;6.806;2022-12-29T06:40:14;0.95;;;0.30;;
46613;SDS011;32338;50.430;6.806;2022-12-29T06:42:42;2.13;;;0.30;;
46613;SDS011;32338;50.430;6.806;2022-12-29T06:45:09;0.25;;;0.20;;
46613;SDS011;32338;50.430;6.806;2022-12-29T06:47:36;0.77;;;0.15;;
46613;SDS011;32338;50.430;6.806;2022-12-29T06:50:03;2.25;;;0.30;;
46613;SDS011;32338;50.430;6.806;2022-12-29T06:52:30;1.23;;;0.20;;
46613;SDS011;32338;50.430;6.806;2022-12-29T06:54:56;4.38;;;0.40;;
46613;SDS011;32338;50.430;6.806;2022-12-29T06:57:23;0.30;;;0.13;;
46613;SDS011;32338;50.430;6.806;2022-12-29T06:59:52;0.57;;;0.20;;
46613;SDS011;32338;50.430;6.806;2022-12-29T07:02:20;2.70;;;0.22;;
46613;SDS011;32338;50.430;6.806;2022-12-29T07:04:47;2.15;;;0.20;;
46613;SDS011;32338;50.430;6.806;2022-12-29T07:07:13;2.95;;;0.30;;
46613;SDS011;32338;50.430;6.806;2022-12-29T07:09:40;1.15;;;0.20;;
46613;SDS011;32338;50.430;6.806;2022-12-29T07:12:06;2.33;;;0.20;;
46613;SDS011;32338;50.430;6.806;2022-12-29T07:14:33;1.15;;;0.20;;
46613;SDS011;32338;50.430;6.806;2022-12-29T07:17:02;2.15;;;0.20;;
46613;SDS011;32338;50.430;6.806;2022-12-29T07:19:30;3.40;;;0.50;;
46613;SDS011;32338;50.430;6.806;2022-12-29T07:21:57;0.50;;;0.30;;
46613;SDS011;32338;50.430;6.806;2022-12-29T07:24:23;1.65;;;0.20;;
46613;SDS011;32338;50.430;6.806;2022-12-29T07:26:50;4.20;;;0.90;;
46613;SDS011;32338;50.430;6.806;2022-12-29T07:29:17;2.25;;;0.43;;
46613;SDS011;32338;50.430;6.806;2022-12-29T07:31:44;1.95;;;0.30;;
46613;SDS011;32338;50.430;6.806;2022-12-29T07:34:12;2.15;;;0.40;;
46613;SDS011;32338;50.430;6.806;2022-12-29T07:36:39;0.88;;;0.20;;
46613;SDS011;32338;50.430;6.806;2022-12-29T07:39:05;1.27;;;0.20;;
46613;SDS011;32338;50.430;6.806;2022-12-29T07:41:32;3.22;;;0.30;;
46613;SDS011;32338;50.430;6.806;2022-12-29T07:43:59;1.42;;;0.20;;
46613;SDS011;32338;50.430;6.806;2022-12-29T07:46:26;5.78;;;0.28;;
46613;SDS011;32338;50.430;6.806;2022-12-29T07:48:53;3.47;;;0.20;;
46613;SDS011;32338;50.430;6.806;2022-12-29T07:51:21;1.73;;;0.20;;
46613;SDS011;32338;50.430;6.806;2022-12-29T07:53:47;2.55;;;0.30;;
46613;SDS011;32338;50.430;6.806;2022-12-29T07:56:14;1.10;;;0.30;;
46613;SDS011;32338;50.430;6.806;2022-12-29T07:58:41;2.10;;;0.40;;
46613;SDS011;32338;50.430;6.806;2022-12-29T08:01:08;4.93;;;0.47;;
46613;SDS011;32338;50.430;6.806;2022-12-29T08:03:34;3.42;;;0.60;;
46613;SDS011;32338;50.430;6.806;2022-12-29T08:06:01;5.35;;;0.60;;
46613;SDS011;32338;50.430;6.806;2022-12-29T08:08:29;2.92;;;0.40;;
46613;SDS011;32338;50.430;6.806;2022-12-29T08:10:55;2.65;;;0.30;;
46613;SDS011;32338;50.430;6.806;2022-12-29T08:13:22;2.85;;;0.45;;
46613;SDS011;32338;50.430;6.806;2022-12-29T08:15:49;4.85;;;0.50;;
46613;SDS011;32338;50.430;6.806;2022-12-29T08:18:15;1.42;;;0.30;;
46613;SDS011;32338;50.430;6.806;2022-12-29T08:20:42;3.85;;;0.40;;
46613;SDS011;32338;50.430;6.806;2022-12-29T08:23:08;1.92;;;0.35;;
46613;SDS011;32338;50.430;6.806;2022-12-29T08:25:36;3.83;;;0.30;;
46613;SDS011;32338;50.430;6.806;2022-12-29T08:28:03;2.70;;;0.60;;
46613;SDS011;32338;50.430;6.806;2022-12-29T08:30:29;2.92;;;0.40;;
46613;SDS011;32338;50.430;6.806;2022-12-29T08:32:56;3.47;;;0.60;;
46613;SDS011;32338;50.430;6.806;2022-12-29T08:35:23;5.35;;;0.52;;
46613;SDS011;32338;50.430;6.806;2022-12-29T08:37:49;3.08;;;0.70;;
46613;SDS011;32338;50.430;6.806;2022-12-29T08:40:16;3.70;;;0.57;;
46613;SDS011;32338;50.430;6.806;2022-12-29T08:42:44;3.63;;;0.57;;
46613;SDS011;32338;50.430;6.806;2022-12-29T08:45:11;3.00;;;0.50;;
46613;SDS011;32338;50.430;6.806;2022-12-29T08:47:37;15.32;;;0.80;;
46613;SDS011;32338;50.430;6.806;2022-12-29T08:50:05;2.35;;;0.65;;
46613;SDS011;32338;50.430;6.806;2022-12-29T08:52:32;6.15;;;0.65;;
46613;SDS011;32338;50.430;6.806;2022-12-29T08:54:59;4.95;;;0.55;;
46613;SDS011;32338;50.430;6.806;2022-12-29T08:57:25;2.83;;;0.40;;
46613;SDS011;32338;50.430;6.806;2022-12-29T08:59:53;4.43;;;0.50;;
46613;SDS011;32338;50.430;6.806;2022-12-29T09:02:20;3.05;;;0.50;;
46613;SDS011;32338;50.430;6.806;2022-12-29T09:04:47;8.73;;;0.68;;
46613;SDS011;32338;50.430;6.806;2022-12-29T09:07:13;1.48;;;0.40;;
46613;SDS011;32338;50.430;6.806;2022-12-29T09:09:40;4.53;;;0.77;;
46613;SDS011;32338;50.430;6.806;2022-12-29T09:12:06;3.63;;;0.50;;
46613;SDS011;32338;50.430;6.806;2022-12-29T09:14:33;4.18;;;0.60;;
46613;SDS011;32338;50.430;6.806;2022-12-29T09:17:01;4.15;;;0.50;;
46613;SDS011;32338;50.430;6.806;2022-12-29T09:19:45;4.53;;;0.38;;
46613;SDS011;32338;50.430;6.806;2022-12-29T09:22:12;3.50;;;0.55;;
46613;SDS011;32338;50.430;6.806;2022-12-29T09:24:38;5.90;;;0.90;;
46613;SDS011;32338;50.430;6.806;2022-12-29T09:27:05;2.80;;;0.50;;
46613;SDS011;32338;50.430;6.806;2022-12-29T09:29:32;6.13;;;0.52;;
46613;SDS011;32338;50.430;6.806;2022-12-29T09:31:58;6.32;;;0.60;;
46613;SDS011;32338;50.430;6.806;2022-12-29T09:34:27;4.20;;;0.50;;
46613;SDS011;32338;50.430;6.806;2022-12-29T09:36:53;5.72;;;0.40;;
46613;SDS011;32338;50.430;6.806;2022-12-29T09:39:21;2.78;;;0.45;;
46613;SDS011;32338;50.430;6.806;2022-12-29T09:41:49;6.95;;;0.38;;
46613;SDS011;32338;50.430;6.806;2022-12-29T09:44:23;7.57;;;0.95;;
46613;SDS011;32338;50.430;6.806;2022-12-29T09:46:57;5.28;;;0.45;;
46613;SDS011;32338;50.430;6.806;2022-12-29T09:49:28;5.78;;;0.50;;
46613;SDS011;32338;50.430;6.806;2022-12-29T09:52:00;7.43;;;0.50;;
46613;SDS011;32338;50.430;6.806;2022-12-29T09:54:36;7.05;;;0.40;;
46613;SDS011;32338;50.430;6.806;2022-12-29T09:57:13;11.07;;;1.58;;
46613;SDS011;32338;50.430;6.806;2022-12-29T09:59:43;10.32;;;1.23;;
46613;SDS011;32338;50.430;6.806;2022-12-29T10:02:20;7.18;;;2.67;;
46613;SDS011;32338;50.430;6.806;2022-12-29T10:04:56;7.05;;;1.38;;
46613;SDS011;32338;50.430;6.806;2022-12-29T10:07:26;6.03;;;0.70;;
46613;SDS011;32338;50.430;6.806;2022-12-29T10:10:01;6.18;;;0.60;;
46613;SDS011;32338;50.430;6.806;2022-12-29T10:12:43;5.65;;;0.60;;
46613;SDS011;32338;50.430;6.806;2022-12-29T10:15:29;4.45;;;1.75;;
46613;SDS011;32338;50.430;6.806;2022-12-29T10:18:10;4.47;;;0.52;;
46613;SDS011;32338;50.430;6.806;2022-12-29T10:20:51;1.88;;;0.70;;
46613;SDS011;32338;50.430;6.806;2022-12-29T10:23:26;5.88;;;0.65;;
46613;SDS011;32338;50.430;6.806;2022-12-29T10:25:55;4.13;;;0.52;;
46613;SDS011;32338;50.430;6.806;2022-12-29T10:28:34;2.67;;;1.10;;
46613;SDS011;32338;50.430;6.806;2022-12-29T10:31:05;3.97;;;0.65;;
46613;SDS011;32338;50.430;6.806;2022-12-29T10:33:37;5.80;;;0.50;;
46613;SDS011;32338;50.430;6.806;2022-12-29T10:36:12;5.50;;;0.93;;
46613;SDS011;32338;50.430;6.806;2022-12-29T10:38:45;4.45;;;0.40;;
46613;SDS011;32338;50.430;6.806;2022-12-29T10:41:18;3.88;;;0.65;;
46613;SDS011;32338;50.430;6.806;2022-12-29T10:43:49;5.43;;;0.50;;
46613;SDS011;32338;50.430;6.806;2022-12-29T10:46:20;4.85;;;0.50;;
46613;SDS011;32338;50.430;6.806;2022-12-29T10:48:49;4.45;;;0.77;;
46613;SDS011;32338;50.430;6.806;2022-12-29T10:51:20;5.80;;;0.75;;
46613;SDS011;32338;50.430;6.806;2022-12-29T10:53:50;4.00;;;0.80;;
46613;SDS011;32338;50.430;6.806;2022-12-29T10:56:28;5.90;;;0.65;;
46613;SDS011;32338;50.430;6.806;2022-12-29T10:59:10;8.60;;;1.00;;
46613;SDS011;32338;50.430;6.806;2022-12-29T11:01:45;5.45;;;0.47;;
46613;SDS011;32338;50.430;6.806;2022-12-29T11:04:28;3.33;;;0.60;;
46613;SDS011;32338;50.430;6.806;2022-12-29T11:07:17;4.40;;;0.65;;
46613;SDS011;32338;50.430;6.806;2022-12-29T11:12:57;7.32;;;0.60;;
46613;SDS011;32338;50.430;6.806;2022-12-29T11:15:25;4.05;;;0.50;;
46613;SDS011;32338;50.430;6.806;2022-12-29T11:17:52;4.35;;;0.98;;
46613;SDS011;32338;50.430;6.806;2022-12-29T11:20:29;7.32;;;0.70;;
46613;SDS011;32338;50.430;6.806;2022-12-29T11:23:02;4.40;;;0.55;;
46613;SDS011;32338;50.430;6.806;2022-12-29T11:25:30;4.00;;;0.57;;
46613;SDS011;32338;50.430;6.806;2022-12-29T11:27:58;3.38;;;0.55;;
46613;SDS011;32338;50.430;6.806;2022-12-29T11:30:29;3.70;;;0.70;;
46613;SDS011;32338;50.430;6.806;2022-12-29T11:32:57;2.42;;;0.50;;
46613;SDS011;32338;50.430;6.806;2022-12-29T11:35:32;7.55;;;0.70;;
46613;SDS011;32338;50.430;6.806;2022-12-29T11:38:03;9.35;;;0.90;;
46613;SDS011;32338;50.430;6.806;2022-12-29T11:40:31;4.00;;;0.70;;
46613;SDS011;32338;50.430;6.806;2022-12-29T11:43:04;3.92;;;0.80;;
46613;SDS011;32338;50.430;6.806;2022-12-29T11:45:32;3.53;;;0.65;;
46613;SDS011;32338;50.430;6.806;2022-12-29T11:48:05;10.27;;;0.95;;
46613;SDS011;32338;50.430;6.806;2022-12-29T11:50:35;3.08;;;0.40;;
46613;SDS011;32338;50.430;6.806;2022-12-29T11:53:07;9.02;;;0.70;;
46613;SDS011;32338;50.430;6.806;2022-12-29T11:55:50;8.77;;;0.75;;
46613;SDS011;32338;50.430;6.806;2022-12-29T11:58:18;5.77;;;0.90;;
46613;SDS011;32338;50.430;6.806;2022-12-29T12:00:45;4.35;;;0.60;;
46613;SDS011;32338;50.430;6.806;2022-12-29T12:03:15;10.38;;;0.70;;
46613;SDS011;32338;50.430;6.806;2022-12-29T12:05:46;7.28;;;0.90;;
46613;SDS011;32338;50.430;6.806;2022-12-29T12:08:20;5.03;;;0.85;;
46613;SDS011;32338;50.430;6.806;2022-12-29T12:10:55;9.95;;;1.00;;
46613;SDS011;32338;50.430;6.806;2022-12-29T12:13:37;8.90;;;1.25;;
46613;SDS011;32338;50.430;6.806;2022-12-29T12:16:09;4.65;;;0.40;;
46613;SDS011;32338;50.430;6.806;2022-12-29T12:18:41;8.00;;;1.20;;
46613;SDS011;32338;50.430;6.806;2022-12-29T12:21:14;5.13;;;0.63;;
46613;SDS011;32338;50.430;6.806;2022-12-29T12:24:03;5.80;;;1.02;;
46613;SDS011;32338;50.430;6.806;2022-12-29T12:26:44;3.85;;;0.80;;
46613;SDS011;32338;50.430;6.806;2022-12-29T12:29:22;5.00;;;1.00;;
46613;SDS011;32338;50.430;6.806;2022-12-29T12:31:54;3.72;;;0.80;;
46613;SDS011;32338;50.430;6.806;2022-12-29T12:34:24;11.45;;;1.15;;
46613;SDS011;32338;50.430;6.806;2022-12-29T12:37:11;5.72;;;0.82;;
46613;SDS011;32338;50.430;6.806;2022-12-29T12:40:07;6.47;;;0.70;;
46613;SDS011;32338;50.430;6.806;2022-12-29T12:43:06;7.50;;;0.80;;
46613;SDS011;32338;50.430;6.806;2022-12-29T12:45:52;3.80;;;0.68;;
46613;SDS011;32338;50.430;6.806;2022-12-29T12:48:30;4.78;;;0.85;;
46613;SDS011;32338;50.430;6.806;2022-12-29T12:51:11;7.05;;;1.33;;
46613;SDS011;32338;50.430;6.806;2022-12-29T12:54:01;4.80;;;1.55;;
46613;SDS011;32338;50.430;6.806;2022-12-29T12:56:44;4.85;;;0.60;;
46613;SDS011;32338;50.430;6.806;2022-12-29T12:59:23;7.50;;;0.90;;
46613;SDS011;32338;50.430;6.806;2022-12-29T13:02:01;7.55;;;0.80;;
46613;SDS011;32338;50.430;6.806;2022-12-29T13:04:43;3.40;;;0.73;;
46613;SDS011;32338;50.430;6.806;2022-12-29T13:07:27;7.38;;;0.75;;
46613;SDS011;32338;50.430;6.806;2022-12-29T13:10:15;9.25;;;0.82;;
46613;SDS011;32338;50.430;6.806;2022-12-29T13:12:51;7.10;;;0.60;;
46613;SDS011;32338;50.430;6.806;2022-12-29T13:15:31;5.43;;;0.80;;
46613;SDS011;32338;50.430;6.806;2022-12-29T13:18:07;5.75;;;0.93;;
46613;SDS011;32338;50.430;6.806;2022-12-29T13:20:47;7.90;;;0.98;;
46613;SDS011;32338;50.430;6.806;2022-12-29T13:23:21;5.28;;;0.75;;
46613;SDS011;32338;50.430;6.806;2022-12-29T13:26:05;7.22;;;0.70;;
46613;SDS011;32338;50.430;6.806;2022-12-29T13:28:45;7.88;;;0.70;;
46613;SDS011;32338;50.430;6.806;2022-12-29T13:31:33;5.78;;;0.70;;
46613;SDS011;32338;50.430;6.806;2022-12-29T13:34:14;4.88;;;0.47;;
46613;SDS011;32338;50.430;6.806;2022-12-29T13:36:48;11.80;;;1.08;;
46613;SDS011;32338;50.430;6.806;2022-12-29T13:39:19;8.70;;;0.80;;
46613;SDS011;32338;50.430;6.806;2022-12-29T13:41:49;9.15;;;0.70;;
46613;SDS011;32338;50.430;6.806;2022-12-29T13:44:20;5.22;;;0.82;;
46613;SDS011;32338;50.430;6.806;2022-12-29T13:46:50;6.75;;;0.82;;
46613;SDS011;32338;50.430;6.806;2022-12-29T13:49:20;4.22;;;0.70;;
46613;SDS011;32338;50.430;6.806;2022-12-29T13:51:49;5.68;;;0.60;;
46613;SDS011;32338;50.430;6.806;2022-12-29T13:54:22;3.83;;;0.80;;
46613;SDS011;32338;50.430;6.806;2022-12-29T13:56:56;4.80;;;0.80;;
46613;SDS011;32338;50.430;6.806;2022-12-29T13:59:36;9.13;;;1.30;;
46613;SDS011;32338;50.430;6.806;2022-12-29T14:02:11;2.55;;;0.40;;
46613;SDS011;32338;50.430;6.806;2022-12-29T14:04:56;4.30;;;0.82;;
46613;SDS011;32338;50.430;6.806;2022-12-29T14:07:25;8.30;;;1.00;;
46613;SDS011;32338;50.430;6.806;2022-12-29T14:09:52;4.43;;;0.65;;
46613;SDS011;32338;50.430;6.806;2022-12-29T14:12:30;3.40;;;0.50;;
46613;SDS011;32338;50.430;6.806;2022-12-29T14:15:13;7.32;;;0.75;;
46613;SDS011;32338;50.430;6.806;2022-12-29T14:17:59;4.95;;;0.60;;
46613;SDS011;32338;50.430;6.806;2022-12-29T14:20:31;6.85;;;0.77;;
46613;SDS011;32338;50.430;6.806;2022-12-29T14:23:01;5.40;;;0.63;;
46613;SDS011;32338;50.430;6.806;2022-12-29T14:26:00;10.00;;;0.93;;
46613;SDS011;32338;50.430;6.806;2022-12-29T14:28:36;5.50;;;0.82;;
46613;SDS011;32338;50.430;6.806;2022-12-29T14:31:18;6.93;;;0.80;;
46613;SDS011;32338;50.430;6.806;2022-12-29T14:37:04;3.85;;;0.65;;
46613;SDS011;32338;50.430;6.806;2022-12-29T14:39:48;6.65;;;0.75;;
46613;SDS011;32338;50.430;6.806;2022-12-29T14:42:15;6.47;;;0.95;;
46613;SDS011;32338;50.430;6.806;2022-12-29T14:44:48;5.00;;;0.70;;
46613;SDS011;32338;50.430;6.806;2022-12-29T14:47:27;5.78;;;0.75;;
46613;SDS011;32338;50.430;6.806;2022-12-29T14:50:08;9.85;;;1.00;;
46613;SDS011;32338;50.430;6.806;2022-12-29T14:52:43;7.18;;;1.15;;
46613;SDS011;32338;50.430;6.806;2022-12-29T14:55:39;9.32;;;0.80;;
46613;SDS011;32338;50.430;6.806;2022-12-29T14:58:20;8.48;;;1.50;;
46613;SDS011;32338;50.430;6.806;2022-12-29T15:00:57;6.38;;;1.02;;
46613;SDS011;32338;50.430;6.806;2022-12-29T15:03:28;8.10;;;0.82;;
46613;SDS011;32338;50.430;6.806;2022-12-29T15:06:04;8.45;;;1.27;;
46613;SDS011;32338;50.430;6.806;2022-12-29T15:08:33;7.85;;;1.02;;
46613;SDS011;32338;50.430;6.806;2022-12-29T15:11:04;6.20;;;0.98;;
46613;SDS011;32338;50.430;6.806;2022-12-29T15:13:39;8.35;;;0.90;;
46613;SDS011;32338;50.430;6.806;2022-12-29T15:16:20;6.50;;;0.80;;
46613;SDS011;32338;50.430;6.806;2022-12-29T15:18:50;10.20;;;0.82;;
46613;SDS011;32338;50.430;6.806;2022-12-29T15:21:16;9.23;;;1.00;;
46613;SDS011;32338;50.430;6.806;2022-12-29T15:23:47;4.40;;;0.95;;
46613;SDS011;32338;50.430;6.806;2022-12-29T15:26:14;6.00;;;0.88;;